createdAt,value
2022-12-13T00:00:22.374Z,18.99
2022-12-13T00:01:22.335Z,18.99
2022-12-13T00:02:22.400Z,18.92
2022-12-13T00:03:22.312Z,19.02
2022-12-13T00:04:22.419Z,18.99
2022-12-13T00:05:22.291Z,18.98
2022-12-13T00:06:22.287Z,18.90
2022-12-13T00:07:22.267Z,18.87
2022-12-13T00:08:22.274Z,18.99
2022-12-13T00:09:22.245Z,18.98
2022-12-13T00:10:22.239Z,18.98
2022-12-13T00:11:22.220Z,19.01
2022-12-13T00:12:22.218Z,18.92
2022-12-13T00:13:22.199Z,18.87
2022-12-13T00:14:22.190Z,18.98
2022-12-13T00:15:22.178Z,18.98
2022-12-13T00:16:22.246Z,18.99
2022-12-13T00:17:22.157Z,19.01
2022-12-13T00:18:22.153Z,18.91
2022-12-13T00:19:22.132Z,18.91
2022-12-13T00:20:22.126Z,18.92
2022-12-13T00:21:22.110Z,18.87
2022-12-13T00:22:22.105Z,18.97
2022-12-13T00:23:22.088Z,18.87
2022-12-13T00:24:22.084Z,18.94
2022-12-13T00:25:22.069Z,18.99
2022-12-13T00:26:22.053Z,18.92
2022-12-13T00:27:22.045Z,18.92
2022-12-13T00:28:22.031Z,18.92
2022-12-13T00:29:22.019Z,18.84
2022-12-13T00:30:22.054Z,18.94
2022-12-13T00:32:23.109Z,18.95
2022-12-13T00:33:21.976Z,18.92
2022-12-13T00:34:22.002Z,18.94
2022-12-13T00:35:21.952Z,18.92
2022-12-13T00:36:21.949Z,18.91
2022-12-13T00:37:21.931Z,18.97
2022-12-13T00:38:21.927Z,18.94
2022-12-13T00:39:21.907Z,18.91
2022-12-13T00:40:21.895Z,18.95
2022-12-13T00:41:21.886Z,18.94
2022-12-13T00:42:21.883Z,18.91
2022-12-13T00:43:21.865Z,18.86
2022-12-13T00:44:21.855Z,18.95
2022-12-13T00:45:21.841Z,18.86
2022-12-13T00:46:21.836Z,18.98
2022-12-13T00:47:21.817Z,18.91
2022-12-13T00:48:21.834Z,18.92
2022-12-13T00:49:21.793Z,18.99
2022-12-13T00:50:21.787Z,18.87
2022-12-13T00:51:21.773Z,18.98
2022-12-13T00:52:21.761Z,19.01
2022-12-13T00:53:21.751Z,18.90
2022-12-13T00:54:21.771Z,18.87
2022-12-13T00:55:21.729Z,18.99
2022-12-13T00:56:21.718Z,18.97
2022-12-13T00:57:21.706Z,19.01
2022-12-13T00:58:21.692Z,18.92
2022-12-13T00:59:21.684Z,18.91
2022-12-13T01:00:21.693Z,19.01
2022-12-13T01:01:21.754Z,19.02
2022-12-13T01:02:21.651Z,18.99
2022-12-13T01:03:21.708Z,18.94
2022-12-13T01:04:21.649Z,19.01
2022-12-13T01:05:38.816Z,18.99
2022-12-13T01:06:22.630Z,18.95
2022-12-13T01:07:21.593Z,18.98
2022-12-13T01:08:21.639Z,18.92
2022-12-13T01:09:21.571Z,19.01
2022-12-13T01:10:21.566Z,18.90
2022-12-13T01:11:21.551Z,18.91
2022-12-13T01:12:21.543Z,18.97
2022-12-13T01:13:21.527Z,18.98
2022-12-13T01:14:21.515Z,18.97
2022-12-13T01:15:21.504Z,18.98
2022-12-13T01:16:21.635Z,19.02
2022-12-13T01:17:21.482Z,18.97
2022-12-13T01:18:21.475Z,19.02
2022-12-13T01:19:21.459Z,18.98
2022-12-13T01:20:21.465Z,18.97
2022-12-13T01:21:22.299Z,18.92
2022-12-13T01:22:21.425Z,19.02
2022-12-13T01:23:21.413Z,19.01
2022-12-13T01:24:21.407Z,18.95
2022-12-13T01:25:21.390Z,18.97
2022-12-13T01:26:21.386Z,18.95
2022-12-13T01:27:21.368Z,18.95
2022-12-13T01:28:21.356Z,19.01
2022-12-13T01:29:21.347Z,18.98
2022-12-13T01:30:21.389Z,19.05
2022-12-13T01:31:21.377Z,18.99
2022-12-13T01:32:21.312Z,19.02
2022-12-13T01:33:21.300Z,19.02
2022-12-13T01:34:21.300Z,19.02
2022-12-13T01:35:22.300Z,19.01
2022-12-13T01:36:27.536Z,18.95
2022-12-13T01:37:26.143Z,18.92
2022-12-13T01:38:21.247Z,18.98
2022-12-13T01:39:26.481Z,18.92
2022-12-13T01:40:21.223Z,18.98
2022-12-13T01:41:27.184Z,18.95
2022-12-13T01:42:22.199Z,19.01
2022-12-13T01:43:21.189Z,19.05
2022-12-13T01:44:21.177Z,18.97
2022-12-13T01:45:21.167Z,19.02
2022-12-13T01:46:21.227Z,19.06
2022-12-13T01:47:21.152Z,18.99
2022-12-13T01:48:21.132Z,19.08
2022-12-13T01:49:21.122Z,18.98
2022-12-13T01:50:21.111Z,19.02
2022-12-13T01:51:21.102Z,19.01
2022-12-13T01:52:21.110Z,19.11
2022-12-13T01:53:21.083Z,18.97
2022-12-13T01:54:21.808Z,19.06
2022-12-13T01:55:21.363Z,19.02
2022-12-13T01:56:21.042Z,19.02
2022-12-13T01:57:21.035Z,19.05
2022-12-13T01:58:21.020Z,19.01
2022-12-13T01:59:21.040Z,18.95
2022-12-13T02:00:20.998Z,19.08
2022-12-13T02:01:21.031Z,19.02
2022-12-13T02:02:20.977Z,19.10
2022-12-13T02:03:21.957Z,18.99
2022-12-13T02:04:20.954Z,19.01
2022-12-13T02:05:21.010Z,19.02
2022-12-13T02:06:20.932Z,19.06
2022-12-13T02:07:23.124Z,19.10
2022-12-13T02:08:20.950Z,19.06
2022-12-13T02:09:20.897Z,19.02
2022-12-13T02:10:20.886Z,19.01
2022-12-13T02:11:20.896Z,19.10
2022-12-13T02:12:20.866Z,19.02
2022-12-13T02:13:20.853Z,19.05
2022-12-13T02:14:20.843Z,19.08
2022-12-13T02:15:20.830Z,18.98
2022-12-13T02:16:22.116Z,18.98
2022-12-13T02:17:20.839Z,19.02
2022-12-13T02:18:20.796Z,19.02
2022-12-13T02:19:20.786Z,19.13
2022-12-13T02:20:21.637Z,19.01
2022-12-13T02:21:20.764Z,19.01
2022-12-13T02:22:20.751Z,19.01
2022-12-13T02:23:20.746Z,19.08
2022-12-13T02:24:20.752Z,18.99
2022-12-13T02:25:20.716Z,19.02
2022-12-13T02:26:21.707Z,19.08
2022-12-13T02:27:30.541Z,19.01
2022-12-13T02:28:21.691Z,19.02
2022-12-13T02:29:30.450Z,19.01
2022-12-13T02:30:21.661Z,19.02
2022-12-13T02:31:20.685Z,19.05
2022-12-13T02:32:20.639Z,18.98
2022-12-13T02:33:21.792Z,19.02
2022-12-13T02:34:20.650Z,19.11
2022-12-13T02:35:20.608Z,19.02
2022-12-13T02:36:20.594Z,19.13
2022-12-13T02:37:20.585Z,19.14
2022-12-13T02:38:24.633Z,19.06
2022-12-13T02:39:29.980Z,19.02
2022-12-13T02:40:21.591Z,19.02
2022-12-13T02:41:20.538Z,19.08
2022-12-13T02:42:21.892Z,19.02
2022-12-13T02:43:21.542Z,19.06
2022-12-13T02:44:22.397Z,19.06
2022-12-13T02:45:21.164Z,19.06
2022-12-13T02:46:20.557Z,19.14
2022-12-13T02:47:22.126Z,19.08
2022-12-13T02:48:20.459Z,19.05
2022-12-13T02:49:20.451Z,19.06
2022-12-13T02:50:20.436Z,18.98
2022-12-13T02:51:20.438Z,19.05
2022-12-13T02:52:22.029Z,19.08
2022-12-13T02:53:20.403Z,19.11
2022-12-13T02:54:20.391Z,19.13
2022-12-13T02:55:23.912Z,19.01
2022-12-13T02:56:21.400Z,19.08
2022-12-13T02:57:21.644Z,19.08
2022-12-13T02:58:20.354Z,19.02
2022-12-13T02:59:20.337Z,19.10
2022-12-13T03:00:20.325Z,19.05
2022-12-13T03:01:27.626Z,19.06
2022-12-13T03:02:31.183Z,19.05
2022-12-13T03:03:21.456Z,19.05
2022-12-13T03:04:26.091Z,19.06
2022-12-13T03:05:21.268Z,18.99
2022-12-13T03:06:20.262Z,19.13
2022-12-13T03:07:20.245Z,19.05
2022-12-13T03:08:20.398Z,19.11
2022-12-13T03:09:20.255Z,19.10
2022-12-13T03:10:20.219Z,19.06
2022-12-13T03:11:20.202Z,19.06
2022-12-13T03:12:20.213Z,19.05
2022-12-13T03:13:20.178Z,19.08
2022-12-13T03:14:20.167Z,19.06
2022-12-13T03:15:20.169Z,19.08
2022-12-13T03:16:23.222Z,19.06
2022-12-13T03:17:20.133Z,19.06
2022-12-13T03:18:20.123Z,19.11
2022-12-13T03:19:20.110Z,19.08
2022-12-13T03:20:22.814Z,19.10
2022-12-13T03:21:20.116Z,19.08
2022-12-13T03:22:20.080Z,19.08
2022-12-13T03:23:20.066Z,19.10
2022-12-13T03:24:20.054Z,19.02
2022-12-13T03:25:30.977Z,19.05
2022-12-13T03:26:21.040Z,19.08
2022-12-13T03:27:20.030Z,19.06
2022-12-13T03:28:20.033Z,19.05
2022-12-13T03:29:23.564Z,19.01
2022-12-13T03:30:19.987Z,19.05
2022-12-13T03:31:20.058Z,19.01
2022-12-13T03:32:19.972Z,19.01
2022-12-13T03:33:19.954Z,18.98
2022-12-13T03:34:22.507Z,19.08
2022-12-13T03:35:21.666Z,19.02
2022-12-13T03:36:19.923Z,19.10
2022-12-13T03:37:19.912Z,19.10
2022-12-13T03:38:22.111Z,19.08
2022-12-13T03:39:19.888Z,19.02
2022-12-13T03:40:19.875Z,19.02
2022-12-13T03:41:19.865Z,19.02
2022-12-13T03:42:19.854Z,19.11
2022-12-13T03:43:21.961Z,19.11
2022-12-13T03:44:19.864Z,19.11
2022-12-13T03:45:19.819Z,19.06
2022-12-13T03:46:19.857Z,19.08
2022-12-13T03:47:19.798Z,19.01
2022-12-13T03:48:22.474Z,19.08
2022-12-13T03:49:19.775Z,19.02
2022-12-13T03:50:26.216Z,19.05
2022-12-13T03:51:20.751Z,19.14
2022-12-13T03:52:19.741Z,19.10
2022-12-13T03:53:22.370Z,19.10
2022-12-13T03:54:20.717Z,19.05
2022-12-13T03:55:19.708Z,19.08
2022-12-13T03:56:19.727Z,19.10
2022-12-13T03:57:19.687Z,19.08
2022-12-13T03:58:19.673Z,19.08
2022-12-13T03:59:19.662Z,19.08
2022-12-13T04:00:19.668Z,19.10
2022-12-13T04:01:19.699Z,19.05
2022-12-13T04:02:31.331Z,19.05
2022-12-13T04:03:20.631Z,19.05
2022-12-13T04:04:19.608Z,18.98
2022-12-13T04:05:19.596Z,19.11
2022-12-13T04:06:22.259Z,19.10
2022-12-13T04:07:22.206Z,19.05
2022-12-13T04:08:22.201Z,19.02
2022-12-13T04:09:19.551Z,19.11
2022-12-13T04:10:25.598Z,19.08
2022-12-13T04:11:20.528Z,19.08
2022-12-13T04:12:19.517Z,19.06
2022-12-13T04:13:19.505Z,19.02
2022-12-13T04:14:21.963Z,19.06
2022-12-13T04:15:19.483Z,19.02
2022-12-13T04:16:19.588Z,19.08
2022-12-13T04:17:19.460Z,19.08
2022-12-13T04:18:19.449Z,19.08
2022-12-13T04:19:23.769Z,19.06
2022-12-13T04:20:19.433Z,19.08
2022-12-13T04:21:19.416Z,19.10
2022-12-13T04:22:24.761Z,19.08
2022-12-13T04:23:20.392Z,19.08
2022-12-13T04:24:19.384Z,18.98
2022-12-13T04:25:19.370Z,19.08
2022-12-13T04:26:19.379Z,19.08
2022-12-13T04:27:19.363Z,19.08
2022-12-13T04:28:22.541Z,19.06
2022-12-13T04:29:19.325Z,19.08
2022-12-13T04:30:19.317Z,19.05
2022-12-13T04:31:19.394Z,19.02
2022-12-13T04:32:26.998Z,19.05
2022-12-13T04:33:20.281Z,19.06
2022-12-13T04:34:19.268Z,19.11
2022-12-13T04:35:19.258Z,19.08
2022-12-13T04:36:31.961Z,19.11
2022-12-13T04:37:20.241Z,19.08
2022-12-13T04:38:19.229Z,19.02
2022-12-13T04:39:22.135Z,19.10
2022-12-13T04:40:21.743Z,19.06
2022-12-13T04:41:19.190Z,19.10
2022-12-13T04:42:19.182Z,19.05
2022-12-13T04:43:19.190Z,18.99
2022-12-13T04:44:28.863Z,19.10
2022-12-13T04:45:20.145Z,19.08
2022-12-13T04:46:19.134Z,19.11
2022-12-13T04:47:19.123Z,19.05
2022-12-13T04:48:30.950Z,19.05
2022-12-13T04:49:20.131Z,19.08
2022-12-13T04:50:19.089Z,19.08
2022-12-13T04:51:19.077Z,19.02
2022-12-13T04:52:22.710Z,19.02
2022-12-13T04:53:19.055Z,19.08
2022-12-13T04:54:23.991Z,19.13
2022-12-13T04:55:20.037Z,19.06
2022-12-13T04:56:19.027Z,19.01
2022-12-13T04:57:19.013Z,19.08
2022-12-13T04:58:22.972Z,19.08
2022-12-13T04:59:18.992Z,19.05
2022-12-13T05:00:18.977Z,19.02
2022-12-13T05:01:19.103Z,19.02
2022-12-13T05:02:23.996Z,19.05
2022-12-13T05:03:19.942Z,19.08
2022-12-13T05:04:18.954Z,19.11
2022-12-13T05:05:19.169Z,19.08
2022-12-13T05:06:27.308Z,19.06
2022-12-13T05:07:19.928Z,19.06
2022-12-13T05:08:18.940Z,19.08
2022-12-13T05:09:18.877Z,19.02
2022-12-13T05:10:34.340Z,19.01
2022-12-13T05:11:19.855Z,19.06
2022-12-13T05:12:23.234Z,19.08
2022-12-13T05:13:18.843Z,19.11
2022-12-13T05:14:23.290Z,19.11
2022-12-13T05:15:18.810Z,19.08
2022-12-13T05:16:18.836Z,19.08
2022-12-13T05:17:19.786Z,19.08
2022-12-13T05:18:18.774Z,19.08
2022-12-13T05:19:18.795Z,19.11
2022-12-13T05:20:18.771Z,19.08
2022-12-13T05:21:18.746Z,19.02
2022-12-13T05:22:20.655Z,19.02
2022-12-13T05:23:22.352Z,19.06
2022-12-13T05:24:18.709Z,19.02
2022-12-13T05:25:18.701Z,19.13
2022-12-13T05:26:18.686Z,19.08
2022-12-13T05:27:25.441Z,19.13
2022-12-13T05:28:27.749Z,19.13
2022-12-13T05:29:19.654Z,19.17
2022-12-13T05:30:18.644Z,19.08
2022-12-13T05:31:23.288Z,19.08
2022-12-13T05:32:19.665Z,19.08
2022-12-13T05:33:18.609Z,19.10
2022-12-13T05:34:18.598Z,19.08
2022-12-13T05:35:22.207Z,19.10
2022-12-13T05:36:18.588Z,19.05
2022-12-13T05:37:18.584Z,19.11
2022-12-13T05:38:18.552Z,19.11
2022-12-13T05:39:27.963Z,19.06
2022-12-13T05:40:19.528Z,19.15
2022-12-13T05:41:18.516Z,19.10
2022-12-13T05:42:18.507Z,19.08
2022-12-13T05:43:21.189Z,19.08
2022-12-13T05:44:18.488Z,19.06
2022-12-13T05:45:18.781Z,19.06
2022-12-13T05:46:18.533Z,19.13
2022-12-13T05:47:18.449Z,19.05
2022-12-13T05:48:24.872Z,19.08
2022-12-13T05:49:19.458Z,19.11
2022-12-13T05:50:18.416Z,19.08
2022-12-13T05:51:18.409Z,19.10
2022-12-13T05:52:18.414Z,19.10
2022-12-13T05:53:30.578Z,19.08
2022-12-13T05:54:19.370Z,19.08
2022-12-13T05:55:18.628Z,19.13
2022-12-13T05:56:22.425Z,19.08
2022-12-13T05:57:18.339Z,19.08
2022-12-13T05:58:23.346Z,19.06
2022-12-13T05:59:19.313Z,19.06
2022-12-13T06:00:30.455Z,19.13
2022-12-13T06:01:19.297Z,19.10
2022-12-13T06:02:21.647Z,19.02
2022-12-13T06:03:18.351Z,19.05
2022-12-13T06:04:22.233Z,19.06
2022-12-13T06:05:19.247Z,19.05
2022-12-13T06:06:18.238Z,19.05
2022-12-13T06:07:18.233Z,19.05
2022-12-13T06:08:24.267Z,19.08
2022-12-13T06:09:19.205Z,19.08
2022-12-13T06:10:21.906Z,19.08
2022-12-13T06:11:31.293Z,19.05
2022-12-13T06:12:32.530Z,19.06
2022-12-13T06:13:21.579Z,19.01
2022-12-13T06:14:22.799Z,19.05
2022-12-13T06:15:22.318Z,19.05
2022-12-13T06:16:22.738Z,19.08
2022-12-13T06:17:21.624Z,19.02
2022-12-13T06:18:18.112Z,19.02
2022-12-13T06:19:18.091Z,19.08
2022-12-13T06:20:24.199Z,19.10
2022-12-13T06:21:19.066Z,19.05
2022-12-13T06:22:18.057Z,19.10
2022-12-13T06:23:18.048Z,19.06
2022-12-13T06:24:18.227Z,19.06
2022-12-13T06:25:30.416Z,19.08
2022-12-13T06:26:19.013Z,19.02
2022-12-13T06:27:18.001Z,19.06
2022-12-13T06:28:17.990Z,19.10
2022-12-13T06:29:24.516Z,19.06
2022-12-13T06:30:18.972Z,19.06
2022-12-13T06:31:18.019Z,19.14
2022-12-13T06:32:17.946Z,19.05
2022-12-13T06:33:23.295Z,19.06
2022-12-13T06:34:18.922Z,19.08
2022-12-13T06:35:29.852Z,19.11
2022-12-13T06:36:18.905Z,19.08
2022-12-13T06:37:17.891Z,19.11
2022-12-13T06:38:31.552Z,19.05
2022-12-13T06:39:18.865Z,19.08
2022-12-13T06:40:22.816Z,19.08
2022-12-13T06:41:18.843Z,19.06
2022-12-13T06:42:22.073Z,19.08
2022-12-13T06:43:17.821Z,19.05
2022-12-13T06:44:17.811Z,19.02
2022-12-13T06:45:17.800Z,19.11
2022-12-13T06:46:17.832Z,19.10
2022-12-13T06:47:32.053Z,19.08
2022-12-13T06:48:20.280Z,19.05
2022-12-13T06:49:17.754Z,19.08
2022-12-13T06:50:17.744Z,19.10
2022-12-13T06:51:22.449Z,19.08
2022-12-13T06:52:18.720Z,19.05
2022-12-13T06:53:17.710Z,19.05
2022-12-13T06:54:21.567Z,19.06
2022-12-13T06:55:23.961Z,19.05
2022-12-13T06:56:18.692Z,19.08
2022-12-13T06:57:17.666Z,19.06
2022-12-13T06:58:17.655Z,19.11
2022-12-13T06:59:17.644Z,19.08
2022-12-13T07:00:22.733Z,19.10
2022-12-13T07:01:24.583Z,19.11
2022-12-13T07:02:25.544Z,18.98
2022-12-13T07:03:18.667Z,19.11
2022-12-13T07:04:29.251Z,19.08
2022-12-13T07:05:18.580Z,19.08
2022-12-13T07:06:17.563Z,19.11
2022-12-13T07:07:17.552Z,19.10
2022-12-13T07:08:22.400Z,19.08
2022-12-13T07:09:18.528Z,19.05
2022-12-13T07:10:22.427Z,19.08
2022-12-13T07:11:18.529Z,19.08
2022-12-13T07:12:17.564Z,19.06
2022-12-13T07:13:17.485Z,19.06
2022-12-13T07:14:17.473Z,19.08
2022-12-13T07:15:17.462Z,18.99
2022-12-13T07:16:17.504Z,19.02
2022-12-13T07:17:32.894Z,19.13
2022-12-13T07:18:18.427Z,19.08
2022-12-13T07:19:23.537Z,19.11
2022-12-13T07:20:18.404Z,19.08
2022-12-13T07:21:21.770Z,19.10
2022-12-13T07:22:17.383Z,19.02
2022-12-13T07:23:17.379Z,19.08
2022-12-13T07:24:18.359Z,19.01
2022-12-13T07:25:28.516Z,19.08
2022-12-13T07:26:18.337Z,19.05
2022-12-13T07:27:17.333Z,19.01
2022-12-13T07:28:17.349Z,19.05
2022-12-13T07:29:22.531Z,19.10
2022-12-13T07:30:18.292Z,19.06
2022-12-13T07:31:17.350Z,19.08
2022-12-13T07:32:17.272Z,19.05
2022-12-13T07:33:22.096Z,18.99
2022-12-13T07:34:18.273Z,19.06
2022-12-13T07:35:17.238Z,19.08
2022-12-13T07:36:17.229Z,19.06
2022-12-13T07:37:30.350Z,19.08
2022-12-13T07:38:18.210Z,19.02
2022-12-13T07:39:17.192Z,19.06
2022-12-13T07:40:17.187Z,19.06
2022-12-13T07:41:23.624Z,19.05
2022-12-13T07:42:18.159Z,19.02
2022-12-13T07:43:17.674Z,19.02
2022-12-13T07:44:17.163Z,19.06
2022-12-13T07:45:17.130Z,19.05
2022-12-13T07:46:17.147Z,19.02
2022-12-13T07:47:17.103Z,19.08
2022-12-13T07:48:17.092Z,19.10
2022-12-13T07:49:17.089Z,19.10
2022-12-13T07:50:24.222Z,19.11
2022-12-13T07:51:18.079Z,19.08
2022-12-13T07:52:17.048Z,19.05
2022-12-13T07:53:17.366Z,19.08
2022-12-13T07:54:17.034Z,19.05
2022-12-13T07:55:17.017Z,19.01
2022-12-13T07:56:17.002Z,19.08
2022-12-13T07:57:17.003Z,19.08
2022-12-13T07:58:16.982Z,19.02
2022-12-13T07:59:16.974Z,19.08
2022-12-13T08:00:17.971Z,19.08
2022-12-13T08:01:16.946Z,18.98
2022-12-13T08:02:16.953Z,19.05
2022-12-13T08:03:24.262Z,19.10
2022-12-13T08:04:17.972Z,19.10
2022-12-13T08:05:26.376Z,19.08
2022-12-13T08:06:17.892Z,19.06
2022-12-13T08:07:16.878Z,19.02
2022-12-13T08:08:17.621Z,19.06
2022-12-13T08:09:16.864Z,19.10
2022-12-13T08:10:16.845Z,19.08
2022-12-13T08:11:16.836Z,19.02
2022-12-13T08:12:22.506Z,19.06
2022-12-13T08:13:18.102Z,19.02
2022-12-13T08:14:16.803Z,18.98
2022-12-13T08:15:16.796Z,19.06
2022-12-13T08:16:26.575Z,19.13
2022-12-13T08:17:17.766Z,19.06
2022-12-13T08:18:16.757Z,19.08
2022-12-13T08:19:16.744Z,19.08
2022-12-13T08:20:22.473Z,19.05
2022-12-13T08:21:52.358Z,19.06
2022-12-13T08:22:24.098Z,19.02
2022-12-13T08:23:17.715Z,19.06
2022-12-13T08:24:16.688Z,19.05
2022-12-13T08:25:16.678Z,19.10
2022-12-13T08:26:16.667Z,19.13
2022-12-13T08:27:16.665Z,19.08
2022-12-13T08:28:16.649Z,19.05
2022-12-13T08:29:23.526Z,19.06
2022-12-13T08:30:22.843Z,19.08
2022-12-13T08:31:17.636Z,19.06
2022-12-13T08:32:16.627Z,19.10
2022-12-13T08:33:16.598Z,19.08
2022-12-13T08:34:16.588Z,19.05
2022-12-13T08:35:16.565Z,19.08
2022-12-13T08:36:16.556Z,19.13
2022-12-13T08:37:16.544Z,19.08
2022-12-13T08:38:22.716Z,19.10
2022-12-13T08:39:17.527Z,19.05
2022-12-13T08:40:16.521Z,19.08
2022-12-13T08:41:16.498Z,19.10
2022-12-13T08:42:19.228Z,19.13
2022-12-13T08:43:16.477Z,19.05
2022-12-13T08:44:16.466Z,19.05
2022-12-13T08:45:16.469Z,19.05
2022-12-13T08:46:16.491Z,19.05
2022-12-13T08:47:24.367Z,19.01
2022-12-13T08:48:17.818Z,19.01
2022-12-13T08:49:16.464Z,19.06
2022-12-13T08:50:16.398Z,19.14
2022-12-13T08:51:16.392Z,19.11
2022-12-13T08:52:17.379Z,19.11
2022-12-13T08:53:27.873Z,19.06
2022-12-13T08:54:31.140Z,19.13
2022-12-13T08:55:19.053Z,19.13
2022-12-13T08:56:16.330Z,19.06
2022-12-13T08:57:16.355Z,19.08
2022-12-13T08:58:16.308Z,19.06
2022-12-13T08:59:16.349Z,19.10
2022-12-13T09:00:16.289Z,19.10
2022-12-13T09:01:16.366Z,19.05
2022-12-13T09:02:16.351Z,19.11
2022-12-13T09:03:16.262Z,19.14
2022-12-13T09:04:16.260Z,19.15
2022-12-13T09:05:33.182Z,19.13
2022-12-13T09:06:17.215Z,19.13
2022-12-13T09:07:16.208Z,19.06
2022-12-13T09:08:24.535Z,19.17
2022-12-13T09:09:17.189Z,19.15
2022-12-13T09:10:26.265Z,19.15
2022-12-13T09:11:32.940Z,19.14
2022-12-13T09:12:30.738Z,19.18
2022-12-13T09:13:31.640Z,19.18
2022-12-13T09:14:17.131Z,19.18
2022-12-13T09:15:21.975Z,19.14
2022-12-13T09:16:23.102Z,19.13
2022-12-13T09:17:24.526Z,19.21
2022-12-13T09:18:24.051Z,19.20
2022-12-13T09:19:25.345Z,19.14
2022-12-13T09:20:28.882Z,19.18
2022-12-13T09:21:22.267Z,19.15
2022-12-13T09:22:17.041Z,19.17
2022-12-13T09:23:24.092Z,19.15
2022-12-13T09:24:24.022Z,19.10
2022-12-13T09:25:24.010Z,19.06
2022-12-13T09:26:16.999Z,19.17
2022-12-13T09:27:28.597Z,19.17
2022-12-13T09:28:16.970Z,19.21
2022-12-13T09:29:15.959Z,19.17
2022-12-13T09:30:15.957Z,19.14
2022-12-13T09:31:16.038Z,19.20
2022-12-13T09:32:15.930Z,19.13
2022-12-13T09:33:28.178Z,19.21
2022-12-13T09:34:16.957Z,19.18
2022-12-13T09:35:15.892Z,19.21
2022-12-13T09:36:15.898Z,19.14
2022-12-13T09:37:23.167Z,19.17
2022-12-13T09:38:16.869Z,19.10
2022-12-13T09:39:15.847Z,19.15
2022-12-13T09:40:25.396Z,19.18
2022-12-13T09:41:19.765Z,19.24
2022-12-13T09:42:15.814Z,19.18
2022-12-13T09:43:22.869Z,19.20
2022-12-13T09:44:31.223Z,19.15
2022-12-13T09:45:22.693Z,19.24
2022-12-13T09:46:22.946Z,19.15
2022-12-13T09:47:22.749Z,19.14
2022-12-13T09:48:22.784Z,19.15
2022-12-13T09:49:23.216Z,19.17
2022-12-13T09:50:16.832Z,19.23
2022-12-13T09:51:28.315Z,19.18
2022-12-13T09:52:21.973Z,19.17
2022-12-13T09:53:21.908Z,19.17
2022-12-13T09:54:16.677Z,19.23
2022-12-13T09:55:15.678Z,19.21
2022-12-13T09:56:15.677Z,19.15
2022-12-13T09:57:15.644Z,19.17
2022-12-13T09:58:16.632Z,19.31
2022-12-13T09:59:15.627Z,19.17
2022-12-13T10:00:15.616Z,19.20
2022-12-13T10:01:22.340Z,19.20
2022-12-13T10:02:16.671Z,19.25
2022-12-13T10:03:15.578Z,19.17
2022-12-13T10:04:15.566Z,19.23
2022-12-13T10:05:22.334Z,19.20
2022-12-13T10:06:23.531Z,19.21
2022-12-13T10:07:16.532Z,19.18
2022-12-13T10:08:15.545Z,19.28
2022-12-13T10:09:15.514Z,19.14
2022-12-13T10:10:15.504Z,19.15
2022-12-13T10:11:15.488Z,19.20
2022-12-13T10:12:15.477Z,19.24
2022-12-13T10:13:15.472Z,19.25
2022-12-13T10:14:15.460Z,19.21
2022-12-13T10:15:22.048Z,19.20
2022-12-13T10:16:23.299Z,19.23
2022-12-13T10:17:16.419Z,19.18
2022-12-13T10:18:15.410Z,19.23
2022-12-13T10:19:29.199Z,19.18
2022-12-13T10:20:16.403Z,19.25
2022-12-13T10:21:15.375Z,19.23
2022-12-13T10:22:15.365Z,19.20
2022-12-13T10:23:53.035Z,19.20
2022-12-13T10:24:27.289Z,19.20
2022-12-13T10:25:16.334Z,19.23
2022-12-13T10:26:24.311Z,19.25
2022-12-13T10:27:16.319Z,19.24
2022-12-13T10:28:15.298Z,19.24
2022-12-13T10:29:15.288Z,19.24
2022-12-13T10:30:15.279Z,19.20
2022-12-13T10:31:15.313Z,19.32
2022-12-13T10:32:15.266Z,19.20
2022-12-13T10:33:15.243Z,19.28
2022-12-13T10:34:16.244Z,19.24
2022-12-13T10:35:15.223Z,19.20
2022-12-13T10:36:15.207Z,19.25
2022-12-13T10:37:15.197Z,19.23
2022-12-13T10:38:15.191Z,19.25
2022-12-13T10:39:15.174Z,19.28
2022-12-13T10:40:15.181Z,19.29
2022-12-13T10:41:16.150Z,19.24
2022-12-13T10:42:22.467Z,19.23
2022-12-13T10:43:16.135Z,19.25
2022-12-13T10:44:15.120Z,19.29
2022-12-13T10:45:15.109Z,19.25
2022-12-13T10:46:15.142Z,19.21
2022-12-13T10:47:17.240Z,19.25
2022-12-13T10:48:15.074Z,19.24
2022-12-13T10:49:15.068Z,19.24
2022-12-13T10:50:15.050Z,19.23
2022-12-13T10:51:15.038Z,19.24
2022-12-13T10:52:15.029Z,19.24
2022-12-13T10:53:15.018Z,19.25
2022-12-13T10:54:15.005Z,19.21
2022-12-13T10:55:23.165Z,19.23
2022-12-13T10:56:23.343Z,19.20
2022-12-13T10:57:15.972Z,19.23
2022-12-13T10:58:14.962Z,19.24
2022-12-13T10:59:17.439Z,19.25
2022-12-13T11:00:15.377Z,19.35
2022-12-13T11:01:15.015Z,19.28
2022-12-13T11:02:14.938Z,19.25
2022-12-13T11:03:14.910Z,19.23
2022-12-13T11:04:14.894Z,19.20
2022-12-13T11:05:14.884Z,19.36
2022-12-13T11:06:15.877Z,19.28
2022-12-13T11:07:14.860Z,19.29
2022-12-13T11:08:14.850Z,19.29
2022-12-13T11:09:23.276Z,19.23
2022-12-13T11:10:15.825Z,19.33
2022-12-13T11:11:14.815Z,19.21
2022-12-13T11:12:14.825Z,19.25
2022-12-13T11:13:14.792Z,19.25
2022-12-13T11:14:14.782Z,19.31
2022-12-13T11:15:14.770Z,19.24
2022-12-13T11:16:14.842Z,19.23
2022-12-13T11:17:14.747Z,19.32
2022-12-13T11:18:14.742Z,19.32
2022-12-13T11:19:14.774Z,19.28
2022-12-13T11:20:14.773Z,19.21
2022-12-13T11:21:14.702Z,19.38
2022-12-13T11:22:14.692Z,19.21
2022-12-13T11:23:14.680Z,19.23
2022-12-13T11:24:14.702Z,19.25
2022-12-13T11:25:15.660Z,19.23
2022-12-13T11:26:14.650Z,19.29
2022-12-13T11:27:14.637Z,19.21
2022-12-13T11:28:25.698Z,19.21
2022-12-13T11:29:15.619Z,19.28
2022-12-13T11:30:14.604Z,19.24
2022-12-13T11:31:14.590Z,19.28
2022-12-13T11:32:14.633Z,19.23
2022-12-13T11:33:15.574Z,19.21
2022-12-13T11:34:14.557Z,19.24
2022-12-13T11:35:14.550Z,19.35
2022-12-13T11:36:14.538Z,19.32
2022-12-13T11:37:14.524Z,19.28
2022-12-13T11:38:14.512Z,19.23
2022-12-13T11:39:14.503Z,19.21
2022-12-13T11:40:14.577Z,19.32
2022-12-13T11:41:31.572Z,19.31
2022-12-13T11:42:15.466Z,19.24
2022-12-13T11:43:14.458Z,19.31
2022-12-13T11:44:14.465Z,19.31
2022-12-13T11:45:22.097Z,19.28
2022-12-13T11:46:15.552Z,19.31
2022-12-13T11:47:14.412Z,19.31
2022-12-13T11:48:14.400Z,19.25
2022-12-13T11:49:14.389Z,19.39
2022-12-13T11:50:18.952Z,19.38
2022-12-13T11:51:15.365Z,19.38
2022-12-13T11:52:14.362Z,19.33
2022-12-13T11:53:14.344Z,19.36
2022-12-13T11:54:14.334Z,19.46
2022-12-13T11:55:15.321Z,19.42
2022-12-13T11:56:14.314Z,19.39
2022-12-13T11:57:14.298Z,19.50
2022-12-13T11:58:16.672Z,19.51
2022-12-13T11:59:23.906Z,19.55
2022-12-13T12:00:15.287Z,19.55
2022-12-13T12:01:15.253Z,19.51
2022-12-13T12:02:16.949Z,19.48
2022-12-13T12:03:14.426Z,19.43
2022-12-13T12:04:14.244Z,19.53
2022-12-13T12:05:14.211Z,19.46
2022-12-13T12:06:14.199Z,19.46
2022-12-13T12:07:31.890Z,19.48
2022-12-13T12:08:43.117Z,19.55
2022-12-13T12:09:15.172Z,19.63
2022-12-13T12:10:14.159Z,19.61
2022-12-13T12:11:14.145Z,19.61
2022-12-13T12:12:14.136Z,19.68
2022-12-13T12:13:15.120Z,19.69
2022-12-13T12:14:14.111Z,19.65
2022-12-13T12:15:16.384Z,19.65
2022-12-13T12:16:14.158Z,19.72
2022-12-13T12:17:14.075Z,19.65
2022-12-13T12:18:14.063Z,19.75
2022-12-13T12:19:14.052Z,19.72
2022-12-13T12:20:14.110Z,19.75
2022-12-13T12:21:15.035Z,19.79
2022-12-13T12:22:15.207Z,19.73
2022-12-13T12:23:14.008Z,19.87
2022-12-13T12:24:13.999Z,19.83
2022-12-13T12:25:13.986Z,19.88
2022-12-13T12:26:13.982Z,19.87
2022-12-13T12:27:13.970Z,19.91
2022-12-13T12:28:14.975Z,19.84
2022-12-13T12:29:13.941Z,19.94
2022-12-13T12:30:13.928Z,19.87
2022-12-13T12:31:14.993Z,19.94
2022-12-13T12:32:13.929Z,19.97
2022-12-13T12:33:13.985Z,19.93
2022-12-13T12:34:13.884Z,19.93
2022-12-13T12:35:13.881Z,19.95
2022-12-13T12:36:13.875Z,19.97
2022-12-13T12:37:13.849Z,20.00
2022-12-13T12:38:13.839Z,19.95
2022-12-13T12:39:13.840Z,20.00
2022-12-13T12:40:13.817Z,19.97
2022-12-13T12:41:16.472Z,20.02
2022-12-13T12:42:13.795Z,20.05
2022-12-13T12:43:16.096Z,20.05
2022-12-13T12:44:13.774Z,20.10
2022-12-13T12:45:27.061Z,20.00
2022-12-13T12:46:14.809Z,20.08
2022-12-13T12:48:52.088Z,20.09
2022-12-13T12:49:14.779Z,20.09
2022-12-13T12:50:13.709Z,20.00
2022-12-13T12:51:13.699Z,20.10
2022-12-13T12:52:13.683Z,20.06
2022-12-13T12:53:13.672Z,20.10
2022-12-13T12:54:13.661Z,20.03